createdAt,value
2023-02-26T00:02:02.867Z,100.00
2023-02-26T00:04:32.017Z,100.00
2023-02-26T00:07:01.010Z,100.00
2023-02-26T00:09:30.258Z,100.00
2023-02-26T00:12:00.216Z,100.00
2023-02-26T00:14:31.110Z,100.00
2023-02-26T00:17:19.001Z,100.00
2023-02-26T00:19:48.545Z,100.00
2023-02-26T00:22:18.214Z,100.00
2023-02-26T00:24:47.321Z,100.00
2023-02-26T00:27:16.314Z,100.00
2023-02-26T00:29:47.332Z,100.00
2023-02-26T00:32:18.301Z,100.00
2023-02-26T00:34:48.454Z,100.00
2023-02-26T00:37:29.062Z,100.00
2023-02-26T00:40:10.441Z,99.92
2023-02-26T00:42:39.990Z,100.00
2023-02-26T00:45:15.588Z,100.00
2023-02-26T00:47:52.435Z,100.00
2023-02-26T00:50:23.629Z,100.00
2023-02-26T00:53:02.822Z,99.52
2023-02-26T00:55:32.284Z,99.68
2023-02-26T00:58:01.198Z,100.00
2023-02-26T01:00:33.445Z,99.85
2023-02-26T01:03:03.877Z,100.00
2023-02-26T01:05:33.652Z,99.98
2023-02-26T01:08:07.782Z,100.00
2023-02-26T01:10:37.540Z,100.00
2023-02-26T01:13:07.243Z,100.00
2023-02-26T01:15:38.398Z,100.00
2023-02-26T01:18:13.713Z,100.00
2023-02-26T01:20:48.423Z,100.00
2023-02-26T01:23:21.464Z,100.00
2023-02-26T01:25:55.274Z,100.00
2023-02-26T01:28:25.798Z,100.00
2023-02-26T01:31:00.972Z,100.00
2023-02-26T01:33:34.394Z,100.00
2023-02-26T01:36:09.234Z,100.00
2023-02-26T01:38:45.262Z,100.00
2023-02-26T01:41:32.850Z,100.00
2023-02-26T01:44:14.638Z,100.00
2023-02-26T01:46:59.785Z,100.00
2023-02-26T01:49:29.685Z,100.00
2023-02-26T01:52:00.502Z,100.00
2023-02-26T01:54:31.961Z,100.00
2023-02-26T01:57:05.331Z,100.00
2023-02-26T01:59:36.153Z,100.00
2023-02-26T02:02:10.297Z,100.00
2023-02-26T02:04:40.499Z,100.00
2023-02-26T02:07:10.182Z,100.00
2023-02-26T02:09:39.617Z,100.00
2023-02-26T02:12:28.549Z,100.00
2023-02-26T02:15:09.795Z,100.00
2023-02-26T02:17:53.535Z,100.00
2023-02-26T02:20:47.918Z,100.00
2023-02-26T02:23:25.934Z,100.00
2023-02-26T02:26:30.817Z,100.00
2023-02-26T02:29:32.221Z,100.00
2023-02-26T02:32:09.176Z,100.00
2023-02-26T02:34:43.184Z,99.51
2023-02-26T02:37:20.479Z,99.54
2023-02-26T02:39:54.400Z,98.99
2023-02-26T02:42:30.081Z,99.06
2023-02-26T02:45:02.622Z,99.02
2023-02-26T02:47:38.735Z,98.77
2023-02-26T02:50:12.880Z,98.17
2023-02-26T02:52:47.840Z,98.38
2023-02-26T02:55:22.421Z,98.92
2023-02-26T02:57:59.673Z,99.14
2023-02-26T03:00:31.817Z,99.79
2023-02-26T03:03:10.839Z,100.00
2023-02-26T03:05:39.913Z,99.79
2023-02-26T03:08:13.095Z,100.00
2023-02-26T03:10:43.337Z,100.00
2023-02-26T03:13:18.983Z,100.00
2023-02-26T03:16:03.539Z,100.00
2023-02-26T03:18:47.213Z,100.00
2023-02-26T03:21:23.158Z,100.00
2023-02-26T03:24:00.818Z,100.00
2023-02-26T03:26:35.166Z,98.49
2023-02-26T03:29:11.247Z,97.08
2023-02-26T03:31:49.491Z,96.50
2023-02-26T03:34:26.113Z,96.49
2023-02-26T03:37:00.492Z,95.94
2023-02-26T03:39:35.917Z,96.34
2023-02-26T03:42:09.182Z,95.41
2023-02-26T03:44:53.895Z,95.50
2023-02-26T03:47:24.392Z,95.55
2023-02-26T03:50:03.289Z,95.94
2023-02-26T03:52:39.838Z,95.05
2023-02-26T03:55:42.575Z,94.83
2023-02-26T03:58:33.326Z,94.34
2023-02-26T04:01:43.176Z,94.01
2023-02-26T04:04:18.980Z,94.24
2023-02-26T04:06:50.005Z,94.41
2023-02-26T04:09:19.205Z,93.48
2023-02-26T04:11:50.479Z,93.36
2023-02-26T04:14:20.430Z,93.45
2023-02-26T04:16:50.324Z,92.79
2023-02-26T04:19:19.836Z,92.96
2023-02-26T04:21:50.951Z,93.21
2023-02-26T04:24:20.226Z,93.49
2023-02-26T04:26:50.003Z,92.19
2023-02-26T04:29:19.637Z,92.56
2023-02-26T04:31:48.896Z,91.93
2023-02-26T04:34:18.517Z,91.96
2023-02-26T04:36:47.431Z,92.45
2023-02-26T04:39:17.817Z,93.47
2023-02-26T04:41:47.048Z,92.17
2023-02-26T04:44:16.506Z,93.78
2023-02-26T04:46:45.678Z,92.61
2023-02-26T04:49:14.736Z,92.25
2023-02-26T04:51:46.302Z,92.65
2023-02-26T04:54:19.072Z,91.52
2023-02-26T04:56:47.980Z,91.62
2023-02-26T04:59:17.804Z,91.31
2023-02-26T05:01:47.739Z,92.04
2023-02-26T05:04:17.028Z,91.99
2023-02-26T05:06:50.124Z,91.69
2023-02-26T05:09:20.616Z,91.92
2023-02-26T05:11:49.954Z,92.38
2023-02-26T05:14:26.243Z,92.80
2023-02-26T05:16:56.654Z,93.03
2023-02-26T05:19:26.062Z,93.31
2023-02-26T05:21:55.018Z,93.62
2023-02-26T05:24:25.403Z,93.92
2023-02-26T05:26:54.495Z,91.57
2023-02-26T05:29:24.802Z,94.01
2023-02-26T05:31:56.071Z,91.99
2023-02-26T05:34:25.248Z,93.53
2023-02-26T05:36:54.189Z,93.57
2023-02-26T05:39:24.584Z,93.96
2023-02-26T05:41:55.593Z,93.92
2023-02-26T05:44:25.063Z,94.28
2023-02-26T05:46:54.185Z,94.91
2023-02-26T05:49:23.092Z,93.04
2023-02-26T05:51:52.177Z,94.34
2023-02-26T05:54:21.265Z,92.82
2023-02-26T05:56:51.948Z,91.16
2023-02-26T05:59:21.100Z,91.80
2023-02-26T06:01:50.435Z,91.60
2023-02-26T06:04:19.502Z,90.94
2023-02-26T06:06:48.565Z,91.33
2023-02-26T06:09:17.563Z,89.96
2023-02-26T06:11:46.650Z,90.50
2023-02-26T06:14:17.493Z,90.32
2023-02-26T06:16:46.799Z,90.44
2023-02-26T06:19:15.877Z,89.59
2023-02-26T06:21:45.052Z,88.95
2023-02-26T06:24:13.994Z,88.37
2023-02-26T06:26:43.025Z,88.42
2023-02-26T06:29:12.243Z,88.46
2023-02-26T06:31:43.041Z,87.86
2023-02-26T06:34:12.402Z,87.69
2023-02-26T06:36:41.820Z,87.74
2023-02-26T06:39:12.869Z,86.19
2023-02-26T06:41:41.981Z,87.54
2023-02-26T06:44:12.039Z,85.06
2023-02-26T06:46:41.143Z,85.37
2023-02-26T06:49:12.758Z,86.29
2023-02-26T06:51:42.148Z,85.12
2023-02-26T06:54:11.144Z,83.23
2023-02-26T06:56:40.184Z,84.59
2023-02-26T06:59:10.741Z,84.57
2023-02-26T07:01:40.191Z,83.34
2023-02-26T07:04:10.702Z,84.11
2023-02-26T07:06:40.028Z,84.07
2023-02-26T07:09:09.240Z,83.36
2023-02-26T07:11:38.336Z,83.00
2023-02-26T07:14:07.503Z,83.50
2023-02-26T07:16:36.793Z,82.32
2023-02-26T07:19:05.798Z,82.96
2023-02-26T07:21:36.532Z,82.66
2023-02-26T07:24:06.026Z,82.68
2023-02-26T07:26:35.095Z,82.61
2023-02-26T07:29:04.046Z,82.70
2023-02-26T07:31:33.792Z,81.70
2023-02-26T07:34:02.838Z,81.55
2023-02-26T07:36:32.109Z,81.61
2023-02-26T07:39:02.806Z,81.80
2023-02-26T07:41:31.903Z,81.97
2023-02-26T07:44:00.990Z,81.16
2023-02-26T07:46:30.188Z,81.31
2023-02-26T07:48:59.415Z,81.56
2023-02-26T07:51:28.628Z,80.30
2023-02-26T07:53:58.497Z,80.31
2023-02-26T07:56:29.109Z,79.89
2023-02-26T07:58:58.293Z,80.45
2023-02-26T08:01:27.386Z,79.25
2023-02-26T08:03:57.183Z,79.64
2023-02-26T08:06:26.771Z,79.98
2023-02-26T08:08:56.154Z,80.84
2023-02-26T08:11:25.253Z,80.22
2023-02-26T08:13:57.006Z,81.29
2023-02-26T08:16:26.573Z,81.05
2023-02-26T08:18:57.377Z,81.25
2023-02-26T08:21:26.935Z,81.43
2023-02-26T08:23:57.031Z,82.24
2023-02-26T08:26:26.426Z,81.11
2023-02-26T08:28:58.682Z,81.73
2023-02-26T08:31:28.766Z,81.15
2023-02-26T08:33:58.138Z,80.09
2023-02-26T08:36:29.144Z,80.78
2023-02-26T08:38:58.962Z,78.90
2023-02-26T08:41:30.851Z,79.74
2023-02-26T08:44:01.824Z,78.87
2023-02-26T08:46:31.035Z,78.81
2023-02-26T08:49:00.340Z,77.83
2023-02-26T08:51:31.335Z,78.42
2023-02-26T08:54:00.799Z,79.16
2023-02-26T08:56:29.744Z,78.61
2023-02-26T08:58:58.920Z,78.68
2023-02-26T09:01:29.686Z,78.66
2023-02-26T09:03:59.358Z,77.83
2023-02-26T09:06:28.938Z,76.60
2023-02-26T09:08:58.433Z,76.08
2023-02-26T09:11:31.204Z,75.33
2023-02-26T09:14:00.586Z,72.62
2023-02-26T09:16:32.277Z,72.52
2023-02-26T09:19:02.987Z,73.29
2023-02-26T09:21:32.147Z,73.51
2023-02-26T09:24:01.292Z,73.60
2023-02-26T09:26:30.680Z,73.21
2023-02-26T09:28:59.885Z,72.26
2023-02-26T09:31:29.657Z,72.93
2023-02-26T09:34:00.485Z,72.19
2023-02-26T09:36:31.506Z,70.70
2023-02-26T09:39:01.051Z,70.84
2023-02-26T09:41:33.513Z,69.31
2023-02-26T09:44:13.572Z,67.42
2023-02-26T09:46:50.577Z,65.43
2023-02-26T09:49:29.335Z,61.41
2023-02-26T09:52:04.083Z,58.94
2023-02-26T09:54:47.832Z,57.28
2023-02-26T09:57:27.876Z,54.42
2023-02-26T09:59:57.393Z,55.66
2023-02-26T10:02:35.385Z,53.90
2023-02-26T10:05:28.423Z,53.83
2023-02-26T10:08:03.608Z,53.38
2023-02-26T10:10:39.773Z,52.90
2023-02-26T10:13:21.497Z,52.81
2023-02-26T10:15:53.863Z,52.01
2023-02-26T10:18:28.189Z,53.25
2023-02-26T10:21:02.729Z,52.30
2023-02-26T10:23:39.442Z,52.30
2023-02-26T10:26:24.479Z,51.47
2023-02-26T10:29:01.609Z,51.27
2023-02-26T10:31:37.067Z,50.83
2023-02-26T10:34:15.666Z,50.75
2023-02-26T10:36:53.737Z,49.69
2023-02-26T10:39:34.891Z,50.09
2023-02-26T10:42:11.257Z,48.91
2023-02-26T10:44:46.275Z,49.30
2023-02-26T10:47:24.670Z,48.67
2023-02-26T10:49:56.649Z,49.55
2023-02-26T10:52:30.122Z,47.70
2023-02-26T10:55:30.696Z,46.93
2023-02-26T10:58:06.642Z,48.13
2023-02-26T11:00:36.892Z,50.11
2023-02-26T11:03:08.201Z,51.10
2023-02-26T11:05:37.742Z,52.46
2023-02-26T11:08:14.981Z,50.00
2023-02-26T11:10:49.657Z,52.67
2023-02-26T11:13:18.800Z,52.72
2023-02-26T11:15:51.590Z,53.06
2023-02-26T11:18:30.512Z,53.93
2023-02-26T11:21:01.673Z,53.59
2023-02-26T11:23:34.825Z,53.98
2023-02-26T11:26:07.836Z,54.39
2023-02-26T11:28:39.780Z,53.84
2023-02-26T11:31:12.234Z,52.06
2023-02-26T11:33:46.250Z,53.58
2023-02-26T11:36:18.271Z,55.34
2023-02-26T11:38:54.597Z,55.10
2023-02-26T11:41:25.622Z,55.90
2023-02-26T11:44:03.128Z,56.99
2023-02-26T11:46:32.995Z,57.59
2023-02-26T11:49:03.333Z,57.39
2023-02-26T11:51:32.396Z,58.15
2023-02-26T11:54:03.492Z,58.39
2023-02-26T11:56:34.712Z,58.09
2023-02-26T11:59:08.878Z,58.67
2023-02-26T12:01:40.079Z,59.69
2023-02-26T12:04:12.702Z,59.01
2023-02-26T12:06:42.298Z,59.80
2023-02-26T12:09:15.260Z,60.49
2023-02-26T12:12:15.327Z,61.01
2023-02-26T12:15:06.501Z,60.31
2023-02-26T12:17:54.709Z,61.64
2023-02-26T12:20:30.405Z,61.66
2023-02-26T12:23:27.873Z,59.87
2023-02-26T12:26:21.408Z,60.15
2023-02-26T12:29:12.591Z,59.08
2023-02-26T12:32:10.419Z,58.65
2023-02-26T12:35:05.378Z,60.42
2023-02-26T12:37:48.852Z,60.39
2023-02-26T12:40:38.977Z,59.26
2023-02-26T12:43:17.437Z,59.51
2023-02-26T12:45:54.285Z,59.17
2023-02-26T12:48:53.312Z,58.87
2023-02-26T12:51:40.190Z,59.05
2023-02-26T12:54:26.090Z,59.50
2023-02-26T12:57:32.405Z,59.13
2023-02-26T13:00:30.338Z,58.66
2023-02-26T13:03:40.316Z,57.94
2023-02-26T13:06:42.424Z,56.54
2023-02-26T13:09:25.868Z,57.52
2023-02-26T13:12:20.038Z,58.55
2023-02-26T13:14:59.694Z,58.08
2023-02-26T13:17:38.229Z,56.99
2023-02-26T13:20:15.332Z,56.10
2023-02-26T13:22:49.489Z,56.51
2023-02-26T13:25:26.437Z,57.27
2023-02-26T13:28:00.176Z,58.42
2023-02-26T13:30:35.323Z,57.48
2023-02-26T13:33:08.692Z,57.06
2023-02-26T13:35:42.248Z,57.67
2023-02-26T13:38:21.510Z,57.75
2023-02-26T13:41:02.003Z,57.56
2023-02-26T13:43:52.701Z,57.10
2023-02-26T13:46:35.819Z,56.44
2023-02-26T13:49:25.149Z,56.61
2023-02-26T13:51:56.213Z,56.59
2023-02-26T13:54:44.861Z,56.98
2023-02-26T13:57:36.988Z,57.01
2023-02-26T14:00:26.511Z,57.52
2023-02-26T14:02:57.917Z,57.98
2023-02-26T14:05:51.420Z,57.98
2023-02-26T14:08:48.091Z,57.66
2023-02-26T14:11:43.534Z,57.33
2023-02-26T14:14:25.217Z,57.42
2023-02-26T14:17:30.223Z,57.45
2023-02-26T14:20:20.861Z,56.75
2023-02-26T14:22:54.452Z,56.73
2023-02-26T14:25:33.289Z,56.68
2023-02-26T14:28:21.308Z,57.15
2023-02-26T14:30:53.996Z,56.93
2023-02-26T14:33:31.263Z,57.29
2023-02-26T14:36:01.462Z,58.09
2023-02-26T14:38:33.403Z,58.09
2023-02-26T14:41:07.896Z,58.36
2023-02-26T14:43:41.647Z,58.76
2023-02-26T14:46:12.695Z,59.28
2023-02-26T14:48:44.041Z,59.39
2023-02-26T14:51:27.742Z,59.73
2023-02-26T14:54:15.169Z,59.99
2023-02-26T14:56:55.809Z,60.47
2023-02-26T14:59:45.595Z,61.59
2023-02-26T15:02:28.502Z,61.46
2023-02-26T15:05:22.451Z,61.72
2023-02-26T15:08:05.651Z,62.37
2023-02-26T15:10:50.295Z,62.48
2023-02-26T15:13:42.010Z,63.37
2023-02-26T15:16:27.193Z,64.33
2023-02-26T15:19:15.463Z,65.40
2023-02-26T15:22:01.096Z,66.42
2023-02-26T15:24:32.233Z,67.04
2023-02-26T15:27:04.111Z,67.40
2023-02-26T15:29:36.979Z,68.27
2023-02-26T15:32:14.917Z,69.31
2023-02-26T15:34:47.348Z,70.23
2023-02-26T15:37:24.662Z,71.49
2023-02-26T15:39:54.374Z,72.67
2023-02-26T15:42:28.873Z,73.93
2023-02-26T15:45:01.855Z,74.30
2023-02-26T15:47:32.567Z,75.50
2023-02-26T15:50:02.619Z,74.81
2023-02-26T15:52:33.980Z,75.39
2023-02-26T15:55:07.480Z,75.91
2023-02-26T15:57:37.638Z,76.08
2023-02-26T16:00:10.696Z,77.08
2023-02-26T16:02:44.615Z,77.50
2023-02-26T16:05:15.810Z,78.01
2023-02-26T16:07:46.808Z,79.53
2023-02-26T16:10:21.237Z,79.66
2023-02-26T16:12:53.165Z,81.67
2023-02-26T16:15:30.362Z,81.26
2023-02-26T16:18:03.234Z,81.89
2023-02-26T16:20:39.428Z,83.45
2023-02-26T16:23:15.414Z,83.42
2023-02-26T16:25:52.484Z,83.76
2023-02-26T16:28:23.827Z,83.48
2023-02-26T16:30:56.546Z,83.22
2023-02-26T16:33:27.879Z,83.96
2023-02-26T16:36:04.362Z,83.70
2023-02-26T16:38:44.715Z,84.05
2023-02-26T16:41:14.452Z,84.07
2023-02-26T16:43:53.015Z,84.09
2023-02-26T16:46:29.448Z,84.00
2023-02-26T16:49:03.839Z,83.31
2023-02-26T16:51:38.164Z,82.20
2023-02-26T16:54:17.049Z,82.42
2023-02-26T16:56:49.372Z,81.56
2023-02-26T16:59:21.872Z,81.18
2023-02-26T17:01:54.786Z,80.99
2023-02-26T17:04:29.096Z,81.23
2023-02-26T17:06:58.501Z,81.54
2023-02-26T17:09:38.931Z,82.00
2023-02-26T17:12:15.755Z,83.10
2023-02-26T17:14:46.811Z,83.68
2023-02-26T17:17:15.881Z,84.84
2023-02-26T17:19:45.426Z,84.18
2023-02-26T17:22:17.797Z,84.61
2023-02-26T17:24:49.668Z,85.01
2023-02-26T17:27:29.777Z,84.49
2023-02-26T17:29:59.716Z,84.64
2023-02-26T17:32:31.600Z,84.72
2023-02-26T17:35:02.034Z,84.38
2023-02-26T17:37:35.363Z,84.77
2023-02-26T17:40:17.295Z,84.40
2023-02-26T17:42:46.738Z,85.18
2023-02-26T17:45:16.491Z,86.00
2023-02-26T17:47:47.699Z,85.66
2023-02-26T17:50:30.759Z,85.97
2023-02-26T17:53:00.157Z,85.70
2023-02-26T17:55:35.899Z,85.31
2023-02-26T17:58:05.355Z,86.48
2023-02-26T18:00:39.967Z,85.77
2023-02-26T18:03:10.288Z,85.62
2023-02-26T18:05:41.884Z,86.78
2023-02-26T18:08:26.025Z,86.74
2023-02-26T18:10:58.915Z,88.06
2023-02-26T18:13:29.048Z,87.38
2023-02-26T18:15:59.179Z,88.78
2023-02-26T18:18:29.508Z,88.84
2023-02-26T18:20:59.152Z,89.11
2023-02-26T18:23:28.434Z,89.18
2023-02-26T18:25:59.686Z,88.78
2023-02-26T18:28:30.382Z,89.67
2023-02-26T18:30:59.964Z,88.81
2023-02-26T18:33:29.123Z,90.19
2023-02-26T18:35:59.313Z,89.65
2023-02-26T18:38:30.942Z,89.86
2023-02-26T18:41:03.230Z,89.33
2023-02-26T18:43:32.249Z,88.77
2023-02-26T18:46:02.369Z,89.51
2023-02-26T18:48:32.316Z,89.53
2023-02-26T18:51:01.432Z,90.16
2023-02-26T18:53:30.714Z,90.58
2023-02-26T18:55:59.844Z,90.51
2023-02-26T18:58:30.466Z,90.73
2023-02-26T19:00:59.758Z,90.24
2023-02-26T19:03:29.026Z,90.65
2023-02-26T19:05:59.644Z,91.06
2023-02-26T19:08:30.463Z,91.43
2023-02-26T19:11:00.386Z,92.23
2023-02-26T19:13:31.736Z,93.43
2023-02-26T19:16:01.099Z,93.64
2023-02-26T19:18:30.446Z,97.14
2023-02-26T19:21:02.090Z,98.05
2023-02-26T19:23:31.297Z,98.97
2023-02-26T19:26:00.336Z,98.64
2023-02-26T19:28:30.940Z,99.59
2023-02-26T19:31:00.509Z,99.11
2023-02-26T19:33:29.504Z,99.33
2023-02-26T19:35:58.898Z,99.07
2023-02-26T19:38:28.200Z,99.89
2023-02-26T19:40:58.070Z,99.73
2023-02-26T19:43:27.179Z,98.82
2023-02-26T19:45:57.791Z,98.38
2023-02-26T19:48:28.131Z,98.07
2023-02-26T19:50:58.415Z,98.20
2023-02-26T19:53:27.601Z,97.76
2023-02-26T19:55:56.798Z,97.46
2023-02-26T19:58:30.665Z,97.58
2023-02-26T20:01:04.462Z,97.87
2023-02-26T20:03:34.067Z,97.55
2023-02-26T20:06:03.820Z,98.40
2023-02-26T20:08:33.052Z,98.58
2023-02-26T20:11:02.470Z,98.49
2023-02-26T20:13:34.964Z,99.25
2023-02-26T20:16:08.586Z,98.84
2023-02-26T20:18:38.259Z,98.75
2023-02-26T20:21:09.833Z,99.07
2023-02-26T20:23:40.249Z,99.58
2023-02-26T20:26:12.206Z,100.00
2023-02-26T20:28:43.419Z,100.00
2023-02-26T20:31:14.503Z,100.00
2023-02-26T20:33:44.035Z,100.00
2023-02-26T20:36:13.612Z,100.00
2023-02-26T20:38:43.165Z,100.00
2023-02-26T20:41:12.376Z,100.00
2023-02-26T20:43:41.670Z,100.00
2023-02-26T20:46:10.890Z,100.00
2023-02-26T20:48:43.213Z,100.00
2023-02-26T20:51:12.403Z,100.00
2023-02-26T20:53:41.486Z,100.00
2023-02-26T20:56:10.575Z,100.00
2023-02-26T20:58:41.508Z,100.00
2023-02-26T21:01:10.677Z,100.00
2023-02-26T21:03:41.418Z,100.00
2023-02-26T21:06:11.130Z,100.00
2023-02-26T21:08:40.077Z,100.00
2023-02-26T21:11:10.256Z,100.00
2023-02-26T21:13:39.282Z,100.00
2023-02-26T21:16:08.672Z,100.00
2023-02-26T21:18:37.652Z,100.00
2023-02-26T21:21:08.400Z,99.82
2023-02-26T21:23:37.444Z,100.00
2023-02-26T21:26:07.309Z,100.00
2023-02-26T21:28:36.338Z,100.00
2023-02-26T21:31:05.529Z,100.00
2023-02-26T21:33:34.493Z,100.00
2023-02-26T21:36:03.505Z,100.00
2023-02-26T21:38:34.481Z,100.00
2023-02-26T21:41:04.278Z,100.00
2023-02-26T21:43:34.288Z,100.00
2023-02-26T21:46:03.437Z,100.00
2023-02-26T21:48:32.644Z,100.00
2023-02-26T21:51:01.776Z,100.00
2023-02-26T21:53:30.805Z,100.00
2023-02-26T21:56:01.190Z,100.00
2023-02-26T21:58:31.045Z,100.00
2023-02-26T22:01:02.064Z,100.00
2023-02-26T22:03:31.197Z,100.00
2023-02-26T22:06:00.196Z,100.00
2023-02-26T22:08:29.258Z,100.00
2023-02-26T22:10:58.160Z,100.00
2023-02-26T22:13:28.663Z,100.00
2023-02-26T22:15:57.650Z,100.00
2023-02-26T22:18:26.668Z,100.00
2023-02-26T22:20:55.862Z,100.00
2023-02-26T22:23:24.878Z,100.00
2023-02-26T22:25:53.849Z,100.00
2023-02-26T22:28:22.938Z,100.00
2023-02-26T22:30:56.411Z,100.00
2023-02-26T22:33:25.802Z,100.00
2023-02-26T22:35:57.296Z,100.00
2023-02-26T22:38:26.339Z,100.00
2023-02-26T22:40:55.640Z,100.00
2023-02-26T22:43:24.559Z,100.00
2023-02-26T22:45:54.967Z,100.00
2023-02-26T22:48:24.038Z,100.00
2023-02-26T22:50:53.100Z,100.00
2023-02-26T22:53:21.975Z,100.00
2023-02-26T22:55:51.057Z,100.00
2023-02-26T22:58:19.964Z,100.00
2023-02-26T23:00:49.215Z,100.00
2023-02-26T23:03:19.597Z,100.00
2023-02-26T23:05:50.350Z,100.00
2023-02-26T23:08:19.391Z,100.00
2023-02-26T23:10:48.555Z,100.00
2023-02-26T23:13:18.342Z,100.00
2023-02-26T23:15:47.832Z,100.00
2023-02-26T23:18:16.916Z,100.00
2023-02-26T23:20:47.699Z,100.00
2023-02-26T23:23:16.688Z,100.00
2023-02-26T23:25:46.039Z,100.00
2023-02-26T23:28:15.216Z,100.00
2023-02-26T23:30:44.396Z,100.00
2023-02-26T23:33:13.912Z,100.00
2023-02-26T23:35:42.866Z,100.00
2023-02-26T23:38:13.363Z,100.00
2023-02-26T23:40:42.441Z,100.00
2023-02-26T23:43:11.665Z,100.00
2023-02-26T23:45:40.705Z,100.00
2023-02-26T23:48:09.646Z,100.00
2023-02-26T23:50:38.552Z,100.00
2023-02-26T23:53:08.095Z,100.00
2023-02-26T23:55:38.425Z,100.00
2023-02-26T23:58:07.484Z,100.00
